aviador You're here:

KHFF Decoded Metar

HOFFMAN/MACKALL in NC, USA
Report Time2018-06-24 21:56:00
UTC Time2018-06-24 22:44:47
Flight Rules vfr VFR
Wind240° at 08 kt
W.Decomp.*RWY 22: 7.2 kt HW 3.5 kt RCW
RWY 29: 5.8 kt HW 5.6 kt LCW
RWY 16: 0.6 kt HW 8.0 kt RCW
W.Rank240° ranks 14
Current wind is above 240° avg. (7.0)
Visibility9999 m
Phenomena:N/A
Clouds:N/A
Expected CloudBase > 6,000 ft AGL from Temp-Dew spread
CeilingNone
Temp36°C (ISA +22)
Dew Point21°C (42% RH)
Heat Index39.9°C
QNH1013 hPa
Density Alt3,166 ft
Elevation377 ft
Report Wrong Elevation
Raw Report
KHFF 242156Z AUTO 24008KT 10SM CLR 36/21 A2990 RMK AO2 LTG DSNT W
SLP136 T03580205 $=

Extra information for KHFF:More info

Metar Taf Metar & Taf Last 4 Metars F.Rules Stats Wind Profile Meteogram Temp Stats Airport Information Weather charts Add Link Nearby VenuesMetar ALERT Operation Metar Decoded Social comments

AIRNAV info for KHFF